FBSK Airport Information

Runway Information
Runway 08 Length 9843 ft width 148 ft
Elevation 3292 ft Threshold 0 ft Heading 62
Runway 26 Length 9843 ft Width 148 ft
Elevation 3291 ft Threshold 0 ft Heading 242
Airport Frequencies
Type APP Name GABORONE A Frequency 128.2 MHZ
Type GND Name KHAMA GND Frequency 121.9 MHZ
Type TWR Name KHAMA TWR Frequency 118.3 MHZ
Airport Navaids
Type NDB Name Gaborone Frequency 311 KHZ
Type VOR-DME Name Gaborone Frequency 113700 KHZ
Airport Weather Information & NOTAM
ADDS - METARS form results

(1732 UTC 03 July 2020)
Data provider http://aviationweather.gov/metar/data/
 
METAR text: FBSK 031700Z 08003KT CAVOK 16/M04 Q1025 NOSIG
Conditions at: FBSK (SIR SERETSE KHAM, BW) observed 1700 UTC 03 July 2020
Temperature: 16.0°C (61°F)
Dewpoint: -4.0°C (25°F) [RH = 25%]
Pressure (altimeter): 30.27 inches Hg (1025.0 mb)
Winds: from the E (80 degrees) at 3 MPH (3 knots; 1.5 m/s)
Visibility: 6 or more miles (10+ km)
Ceiling: ceiling and visibility are OK
Clouds: unknown
Weather: no significant weather observed at this time

Forecast for: FBSK (SIR SERETSE KHAM, BW)
Text: FBSK 031600Z 0318/0424 05005KT CAVOK
Forecast period: 1800 UTC 03 July 2020 to 0000 UTC 05 July 2020
Forecast type: FROM: standard forecast or significant change
Winds: from the NE (50 degrees) at 6 MPH (5 knots; 2.6 m/s)
Visibility: 6 or more miles 10+ km)
Ceiling: unknown
Clouds: missing
Weather: NSW  (no significant weather)

Logo Ivao